sensor_id;sensor_type;location;lat;lon;timestamp;pressure;altitude;pressure_sealevel;temperature
25985;BMP280;66753;53.848;10.658;2023-03-01T00:04:36;102894.47;;;0.26
25985;BMP280;66753;53.848;10.658;2023-03-01T00:09:37;102901.50;;;0.26
25985;BMP280;66753;53.848;10.658;2023-03-01T00:14:37;102900.09;;;0.23
25985;BMP280;66753;53.848;10.658;2023-03-01T00:19:38;102894.50;;;0.20
25985;BMP280;66753;53.848;10.658;2023-03-01T00:24:38;102892.91;;;0.19
25985;BMP280;66753;53.848;10.658;2023-03-01T00:29:39;102898.53;;;0.16
25985;BMP280;66753;53.848;10.658;2023-03-01T00:34:39;102900.53;;;0.14
25985;BMP280;66753;53.848;10.658;2023-03-01T00:39:39;102896.53;;;0.11
25985;BMP280;66753;53.848;10.658;2023-03-01T00:44:40;102897.53;;;0.10
25985;BMP280;66753;53.848;10.658;2023-03-01T00:49:40;102892.72;;;0.07
25985;BMP280;66753;53.848;10.658;2023-03-01T00:54:41;102885.50;;;0.03
25985;BMP280;66753;53.848;10.658;2023-03-01T00:59:41;102873.88;;;-0.02
25985;BMP280;66753;53.848;10.658;2023-03-01T01:04:42;102869.66;;;-0.03
25985;BMP280;66753;53.848;10.658;2023-03-01T01:09:42;102860.06;;;-0.09
25985;BMP280;66753;53.848;10.658;2023-03-01T01:14:43;102860.06;;;-0.15
25985;BMP280;66753;53.848;10.658;2023-03-01T01:19:43;102849.66;;;-0.22
25985;BMP280;66753;53.848;10.658;2023-03-01T01:24:44;102844.03;;;-0.25
25985;BMP280;66753;53.848;10.658;2023-03-01T01:29:44;102855.06;;;-0.23
25985;BMP280;66753;53.848;10.658;2023-03-01T01:34:45;102844.84;;;-0.25
25985;BMP280;66753;53.848;10.658;2023-03-01T01:39:46;102838.44;;;-0.29
25985;BMP280;66753;53.848;10.658;2023-03-01T01:44:47;102839.66;;;-0.31
25985;BMP280;66753;53.848;10.658;2023-03-01T01:49:49;102839.22;;;-0.35
25985;BMP280;66753;53.848;10.658;2023-03-01T01:55:05;102832.81;;;-0.39
25985;BMP280;66753;53.848;10.658;2023-03-01T02:00:14;102832.81;;;-0.39
25985;BMP280;66753;53.848;10.658;2023-03-01T02:05:22;102825.41;;;-0.42
25985;BMP280;66753;53.848;10.658;2023-03-01T02:10:27;102830.00;;;-0.44
25985;BMP280;66753;53.848;10.658;2023-03-01T02:15:35;102813.78;;;-0.46
25985;BMP280;66753;53.848;10.658;2023-03-01T02:26:29;102794.94;;;-0.48
25985;BMP280;66753;53.848;10.658;2023-03-01T02:31:33;102787.16;;;-0.54
25985;BMP280;66753;53.848;10.658;2023-03-01T02:36:46;102791.97;;;-0.58
25985;BMP280;66753;53.848;10.658;2023-03-01T02:41:53;102792.75;;;-0.57
25985;BMP280;66753;53.848;10.658;2023-03-01T02:46:56;102791.97;;;-0.58
25985;BMP280;66753;53.848;10.658;2023-03-01T02:52:04;102785.13;;;-0.59
25985;BMP280;66753;53.848;10.658;2023-03-01T02:57:05;102776.75;;;-0.61
25985;BMP280;66753;53.848;10.658;2023-03-01T03:02:07;102777.53;;;-0.67
25985;BMP280;66753;53.848;10.658;2023-03-01T03:07:08;102782.16;;;-0.69
25985;BMP280;66753;53.848;10.658;2023-03-01T03:12:08;102782.56;;;-0.72
25985;BMP280;66753;53.848;10.658;2023-03-01T03:17:09;102784.38;;;-0.72
25985;BMP280;66753;53.848;10.658;2023-03-01T03:22:09;102786.56;;;-0.69
25985;BMP280;66753;53.848;10.658;2023-03-01T03:27:09;102774.56;;;-0.70
25985;BMP280;66753;53.848;10.658;2023-03-01T03:32:10;102767.31;;;-0.75
25985;BMP280;66753;53.848;10.658;2023-03-01T03:37:10;102769.34;;;-0.77
25985;BMP280;66753;53.848;10.658;2023-03-01T03:42:31;102765.94;;;-0.77
25985;BMP280;66753;53.848;10.658;2023-03-01T03:47:31;102762.13;;;-0.75
25985;BMP280;66753;53.848;10.658;2023-03-01T03:52:31;102765.53;;;-0.68
25985;BMP280;66753;53.848;10.658;2023-03-01T03:57:32;102769.13;;;-0.62
25985;BMP280;66753;53.848;10.658;2023-03-01T04:02:32;102771.91;;;-0.57
25985;BMP280;66753;53.848;10.658;2023-03-01T04:07:34;102769.13;;;-0.56
25985;BMP280;66753;53.848;10.658;2023-03-01T04:12:34;102770.72;;;-0.55
25985;BMP280;66753;53.848;10.658;2023-03-01T04:17:35;102771.91;;;-0.57
25985;BMP280;66753;53.848;10.658;2023-03-01T04:22:37;102773.75;;;-0.58
25985;BMP280;66753;53.848;10.658;2023-03-01T04:27:37;102773.75;;;-0.58
25985;BMP280;66753;53.848;10.658;2023-03-01T04:32:38;102778.34;;;-0.60
25985;BMP280;66753;53.848;10.658;2023-03-01T04:37:38;102777.31;;;-0.59
25985;BMP280;66753;53.848;10.658;2023-03-01T04:42:39;102790.75;;;-0.49
25985;BMP280;66753;53.848;10.658;2023-03-01T04:47:41;102781.72;;;-0.40
25985;BMP280;66753;53.848;10.658;2023-03-01T04:52:43;102787.53;;;-0.31
25985;BMP280;66753;53.848;10.658;2023-03-01T04:57:44;102795.94;;;-0.23
25985;BMP280;66753;53.848;10.658;2023-03-01T05:07:55;102797.88;;;0.02
25985;BMP280;66753;53.848;10.658;2023-03-01T05:12:56;102809.06;;;0.15
25985;BMP280;66753;53.848;10.658;2023-03-01T05:18:00;102814.66;;;0.25
25985;BMP280;66753;53.848;10.658;2023-03-01T05:23:00;102818.97;;;0.38
25985;BMP280;66753;53.848;10.658;2023-03-01T05:28:10;102805.50;;;0.47
25985;BMP280;66753;53.848;10.658;2023-03-01T05:33:11;102813.69;;;0.51
25985;BMP280;66753;53.848;10.658;2023-03-01T05:38:15;102810.84;;;0.59
25985;BMP280;66753;53.848;10.658;2023-03-01T05:43:16;102813.25;;;0.60
25985;BMP280;66753;53.848;10.658;2023-03-01T05:48:18;102816.22;;;0.64
25985;BMP280;66753;53.848;10.658;2023-03-01T05:53:20;102808.38;;;0.64
25985;BMP280;66753;53.848;10.658;2023-03-01T05:58:23;102804.78;;;0.65
25985;BMP280;66753;53.848;10.658;2023-03-01T06:03:24;102814.03;;;0.61
25985;BMP280;66753;53.848;10.658;2023-03-01T06:08:24;102814.03;;;0.61
25985;BMP280;66753;53.848;10.658;2023-03-01T06:13:27;102800.16;;;0.67
25985;BMP280;66753;53.848;10.658;2023-03-01T06:18:27;102813.00;;;0.68
25985;BMP280;66753;53.848;10.658;2023-03-01T06:23:28;102816.97;;;0.77
25985;BMP280;66753;53.848;10.658;2023-03-01T06:28:28;102820.28;;;0.91
25985;BMP280;66753;53.848;10.658;2023-03-01T06:33:28;102814.53;;;1.07
25985;BMP280;66753;53.848;10.658;2023-03-01T06:38:29;102835.22;;;1.08
25985;BMP280;66753;53.848;10.658;2023-03-01T06:43:29;102837.09;;;1.26
25985;BMP280;66753;53.848;10.658;2023-03-01T06:48:30;102846.59;;;1.38
25985;BMP280;66753;53.848;10.658;2023-03-01T06:53:30;102845.84;;;1.56
25985;BMP280;66753;53.848;10.658;2023-03-01T06:58:31;102847.34;;;1.70
25985;BMP280;66753;53.848;10.658;2023-03-01T07:03:31;102858.53;;;1.77
25985;BMP280;66753;53.848;10.658;2023-03-01T07:08:32;102850.84;;;1.82
25985;BMP280;66753;53.848;10.658;2023-03-01T07:13:32;102841.97;;;1.83
25985;BMP280;66753;53.848;10.658;2023-03-01T07:18:33;102844.72;;;1.88
25985;BMP280;66753;53.848;10.658;2023-03-01T07:23:33;102842.69;;;1.90
25985;BMP280;66753;53.848;10.658;2023-03-01T07:28:34;102855.19;;;2.06
25985;BMP280;66753;53.848;10.658;2023-03-01T07:33:36;102848.72;;;2.27
25985;BMP280;66753;53.848;10.658;2023-03-01T07:38:36;102865.97;;;2.46
25985;BMP280;66753;53.848;10.658;2023-03-01T07:43:37;102867.16;;;2.61
25985;BMP280;66753;53.848;10.658;2023-03-01T07:48:37;102874.19;;;2.61
25985;BMP280;66753;53.848;10.658;2023-03-01T07:53:37;102881.53;;;2.59
25985;BMP280;66753;53.848;10.658;2023-03-01T07:58:42;102881.06;;;2.62
25985;BMP280;66753;53.848;10.658;2023-03-01T08:03:43;102892.44;;;2.67
25985;BMP280;66753;53.848;10.658;2023-03-01T08:08:44;102898.69;;;2.84
25985;BMP280;66753;53.848;10.658;2023-03-01T08:13:47;102903.97;;;3.07
25985;BMP280;66753;53.848;10.658;2023-03-01T08:18:48;102897.84;;;3.13
25985;BMP280;66753;53.848;10.658;2023-03-01T08:23:49;102901.06;;;3.38
25985;BMP280;66753;53.848;10.658;2023-03-01T08:28:49;102909.16;;;3.60
25985;BMP280;66753;53.848;10.658;2023-03-01T08:33:52;102903.56;;;3.80
25985;BMP280;66753;53.848;10.658;2023-03-01T08:38:55;102923.59;;;4.09
25985;BMP280;66753;53.848;10.658;2023-03-01T08:43:56;102917.16;;;4.28
25985;BMP280;66753;53.848;10.658;2023-03-01T08:48:59;102919.59;;;4.46
25985;BMP280;66753;53.848;10.658;2023-03-01T08:53:59;102921.38;;;4.57
25985;BMP280;66753;53.848;10.658;2023-03-01T08:59:00;102937.72;;;4.75
25985;BMP280;66753;53.848;10.658;2023-03-01T09:04:00;102941.03;;;4.82
25985;BMP280;66753;53.848;10.658;2023-03-01T09:09:02;102951.25;;;4.95
25985;BMP280;66753;53.848;10.658;2023-03-01T09:14:05;102958.09;;;5.29
25985;BMP280;66753;53.848;10.658;2023-03-01T09:19:05;102961.50;;;5.63
25985;BMP280;66753;53.848;10.658;2023-03-01T09:24:12;102945.97;;;5.61
25985;BMP280;66753;53.848;10.658;2023-03-01T09:29:14;102938.94;;;5.67
25985;BMP280;66753;53.848;10.658;2023-03-01T09:34:15;102941.56;;;5.67
25985;BMP280;66753;53.848;10.658;2023-03-01T09:39:19;102952.59;;;5.64
25985;BMP280;66753;53.848;10.658;2023-03-01T09:44:30;102958.75;;;5.91
25985;BMP280;66753;53.848;10.658;2023-03-01T09:49:34;102948.69;;;6.10
25985;BMP280;66753;53.848;10.658;2023-03-01T09:54:35;102936.44;;;6.20
25985;BMP280;66753;53.848;10.658;2023-03-01T09:59:45;102943.16;;;6.33
25985;BMP280;66753;53.848;10.658;2023-03-01T10:04:54;102938.25;;;6.41
25985;BMP280;66753;53.848;10.658;2023-03-01T10:09:55;102942.16;;;6.60
25985;BMP280;66753;53.848;10.658;2023-03-01T10:15:14;102946.56;;;6.81
25985;BMP280;66753;53.848;10.658;2023-03-01T10:20:22;102938.78;;;7.01
25985;BMP280;66753;53.848;10.658;2023-03-01T10:30:42;102926.41;;;7.38
25985;BMP280;66753;53.848;10.658;2023-03-01T10:35:44;102920.09;;;7.44
25985;BMP280;66753;53.848;10.658;2023-03-01T10:40:59;102909.31;;;7.51
25985;BMP280;66753;53.848;10.658;2023-03-01T10:46:01;102905.97;;;7.70
25985;BMP280;66753;53.848;10.658;2023-03-01T10:56:10;102906.13;;;8.25
25985;BMP280;66753;53.848;10.658;2023-03-01T11:06:21;102903.75;;;8.84
25985;BMP280;66753;53.848;10.658;2023-03-01T11:11:35;102924.03;;;9.39
25985;BMP280;66753;53.848;10.658;2023-03-01T11:16:37;102916.03;;;9.54
25985;BMP280;66753;53.848;10.658;2023-03-01T11:21:58;102916.53;;;9.66
25985;BMP280;66753;53.848;10.658;2023-03-01T11:27:04;102903.97;;;9.81
25985;BMP280;66753;53.848;10.658;2023-03-01T11:32:07;102901.47;;;10.00
25985;BMP280;66753;53.848;10.658;2023-03-01T11:37:16;102897.91;;;10.19
25985;BMP280;66753;53.848;10.658;2023-03-01T11:42:31;102893.44;;;10.15
25985;BMP280;66753;53.848;10.658;2023-03-01T12:15:31;102850.34;;;10.33
25985;BMP280;66753;53.848;10.658;2023-03-01T12:20:46;102857.28;;;10.29
25985;BMP280;66753;53.848;10.658;2023-03-01T12:26:01;102852.47;;;10.36
25985;BMP280;66753;53.848;10.658;2023-03-01T12:47:52;102845.50;;;10.68
25985;BMP280;66753;53.848;10.658;2023-03-01T12:52:57;102835.25;;;10.62
25985;BMP280;66753;53.848;10.658;2023-03-01T12:58:23;102837.31;;;10.65
25985;BMP280;66753;53.848;10.658;2023-03-01T13:09:04;102832.53;;;10.67
25985;BMP280;66753;53.848;10.658;2023-03-01T13:19:27;102823.66;;;10.53
25985;BMP280;66753;53.848;10.658;2023-03-01T13:24:41;102817.69;;;10.66
25985;BMP280;66753;53.848;10.658;2023-03-01T13:29:56;102811.06;;;10.63
25985;BMP280;66753;53.848;10.658;2023-03-01T13:35:01;102805.53;;;10.60
25985;BMP280;66753;53.848;10.658;2023-03-01T13:45:43;102789.34;;;10.33
25985;BMP280;66753;53.848;10.658;2023-03-01T13:50:51;102790.59;;;10.45
25985;BMP280;66753;53.848;10.658;2023-03-01T13:55:57;102793.56;;;10.39
25985;BMP280;66753;53.848;10.658;2023-03-01T14:01:01;102788.28;;;10.10
25985;BMP280;66753;53.848;10.658;2023-03-01T14:06:05;102792.09;;;10.28
25985;BMP280;66753;53.848;10.658;2023-03-01T14:22:10;102775.94;;;10.24
25985;BMP280;66753;53.848;10.658;2023-03-01T14:27:13;102773.72;;;10.31
25985;BMP280;66753;53.848;10.658;2023-03-01T14:32:26;102765.25;;;10.06
25985;BMP280;66753;53.848;10.658;2023-03-01T14:37:28;102759.13;;;9.77
25985;BMP280;66753;53.848;10.658;2023-03-01T14:42:34;102748.59;;;9.67
25985;BMP280;66753;53.848;10.658;2023-03-01T14:47:36;102742.31;;;9.63
25985;BMP280;66753;53.848;10.658;2023-03-01T14:52:40;102734.00;;;9.69
25985;BMP280;66753;53.848;10.658;2023-03-01T14:57:47;102726.94;;;9.60
25985;BMP280;66753;53.848;10.658;2023-03-01T15:02:50;102723.13;;;9.37
25985;BMP280;66753;53.848;10.658;2023-03-01T15:07:51;102723.44;;;9.31
25985;BMP280;66753;53.848;10.658;2023-03-01T15:12:53;102715.53;;;9.26
25985;BMP280;66753;53.848;10.658;2023-03-01T15:17:55;102709.16;;;9.22
25985;BMP280;66753;53.848;10.658;2023-03-01T15:22:57;102719.59;;;9.08
25985;BMP280;66753;53.848;10.658;2023-03-01T15:27:59;102734.38;;;9.09
25985;BMP280;66753;53.848;10.658;2023-03-01T15:48:38;102741.72;;;8.58
25985;BMP280;66753;53.848;10.658;2023-03-01T15:53:39;102751.81;;;8.46
25985;BMP280;66753;53.848;10.658;2023-03-01T15:58:39;102736.22;;;8.40
25985;BMP280;66753;53.848;10.658;2023-03-01T16:03:40;102744.91;;;8.45
25985;BMP280;66753;53.848;10.658;2023-03-01T16:08:40;102737.84;;;8.26
25985;BMP280;66753;53.848;10.658;2023-03-01T16:13:41;102739.94;;;8.14
25985;BMP280;66753;53.848;10.658;2023-03-01T16:18:44;102743.91;;;8.06
25985;BMP280;66753;53.848;10.658;2023-03-01T16:23:44;102741.56;;;8.10
25985;BMP280;66753;53.848;10.658;2023-03-01T16:28:45;102733.88;;;7.98
25985;BMP280;66753;53.848;10.658;2023-03-01T16:33:46;102740.19;;;7.77
25985;BMP280;66753;53.848;10.658;2023-03-01T16:38:51;102739.41;;;7.67
25985;BMP280;66753;53.848;10.658;2023-03-01T16:43:51;102734.84;;;7.47
25985;BMP280;66753;53.848;10.658;2023-03-01T16:48:52;102739.06;;;7.33
25985;BMP280;66753;53.848;10.658;2023-03-01T16:53:53;102734.78;;;7.17
25985;BMP280;66753;53.848;10.658;2023-03-01T16:58:53;102729.72;;;7.06
25985;BMP280;66753;53.848;10.658;2023-03-01T17:03:54;102722.81;;;6.95
25985;BMP280;66753;53.848;10.658;2023-03-01T17:08:54;102730.94;;;6.83
25985;BMP280;66753;53.848;10.658;2023-03-01T17:13:54;102725.63;;;6.78
25985;BMP280;66753;53.848;10.658;2023-03-01T17:18:55;102741.50;;;6.83
25985;BMP280;66753;53.848;10.658;2023-03-01T17:23:56;102735.97;;;6.85
25985;BMP280;66753;53.848;10.658;2023-03-01T17:28:57;102753.06;;;6.82
25985;BMP280;66753;53.848;10.658;2023-03-01T17:33:58;102745.09;;;6.77
25985;BMP280;66753;53.848;10.658;2023-03-01T17:38:59;102743.25;;;6.73
25985;BMP280;66753;53.848;10.658;2023-03-01T17:43:59;102747.16;;;6.65
25985;BMP280;66753;53.848;10.658;2023-03-01T17:48:59;102747.41;;;6.59
25985;BMP280;66753;53.848;10.658;2023-03-01T17:54:00;102744.41;;;6.50
25985;BMP280;66753;53.848;10.658;2023-03-01T17:59:00;102747.59;;;6.52
25985;BMP280;66753;53.848;10.658;2023-03-01T18:04:01;102750.47;;;6.51
25985;BMP280;66753;53.848;10.658;2023-03-01T18:09:03;102745.25;;;6.56
25985;BMP280;66753;53.848;10.658;2023-03-01T18:14:03;102758.13;;;6.52
25985;BMP280;66753;53.848;10.658;2023-03-01T18:19:04;102756.56;;;6.51
25985;BMP280;66753;53.848;10.658;2023-03-01T18:24:05;102762.34;;;6.48
25985;BMP280;66753;53.848;10.658;2023-03-01T18:29:05;102772.75;;;6.33
25985;BMP280;66753;53.848;10.658;2023-03-01T18:34:10;102761.63;;;6.21
25985;BMP280;66753;53.848;10.658;2023-03-01T18:39:10;102756.75;;;6.08
25985;BMP280;66753;53.848;10.658;2023-03-01T18:44:11;102765.59;;;5.97
25985;BMP280;66753;53.848;10.658;2023-03-01T18:49:12;102753.44;;;5.91
25985;BMP280;66753;53.848;10.658;2023-03-01T18:54:13;102759.09;;;5.78
25985;BMP280;66753;53.848;10.658;2023-03-01T18:59:13;102758.44;;;5.66
25985;BMP280;66753;53.848;10.658;2023-03-01T19:04:14;102762.41;;;5.47
25985;BMP280;66753;53.848;10.658;2023-03-01T19:09:14;102765.28;;;5.45
25985;BMP280;66753;53.848;10.658;2023-03-01T19:14:15;102763.94;;;5.43
25985;BMP280;66753;53.848;10.658;2023-03-01T19:19:15;102762.81;;;5.34
25985;BMP280;66753;53.848;10.658;2023-03-01T19:24:16;102768.47;;;5.26
25985;BMP280;66753;53.848;10.658;2023-03-01T19:29:16;102766.09;;;5.24
25985;BMP280;66753;53.848;10.658;2023-03-01T19:34:16;102774.59;;;5.31
25985;BMP280;66753;53.848;10.658;2023-03-01T19:39:17;102783.53;;;5.30
25985;BMP280;66753;53.848;10.658;2023-03-01T19:44:18;102797.94;;;5.28
25985;BMP280;66753;53.848;10.658;2023-03-01T19:49:19;102799.09;;;5.15
25985;BMP280;66753;53.848;10.658;2023-03-01T19:54:20;102799.44;;;5.02
25985;BMP280;66753;53.848;10.658;2023-03-01T19:59:21;102792.75;;;4.95
25985;BMP280;66753;53.848;10.658;2023-03-01T20:04:23;102792.13;;;4.88
25985;BMP280;66753;53.848;10.658;2023-03-01T20:09:24;102796.41;;;4.77
25985;BMP280;66753;53.848;10.658;2023-03-01T20:14:24;102792.63;;;4.68
25985;BMP280;66753;53.848;10.658;2023-03-01T20:19:25;102802.81;;;4.65
25985;BMP280;66753;53.848;10.658;2023-03-01T20:24:25;102812.34;;;4.54
25985;BMP280;66753;53.848;10.658;2023-03-01T20:29:26;102817.75;;;4.48
25985;BMP280;66753;53.848;10.658;2023-03-01T20:34:26;102833.78;;;4.35
25985;BMP280;66753;53.848;10.658;2023-03-01T20:39:27;102833.72;;;4.30
25985;BMP280;66753;53.848;10.658;2023-03-01T20:44:27;102819.00;;;4.29
25985;BMP280;66753;53.848;10.658;2023-03-01T20:49:27;102821.06;;;4.27
25985;BMP280;66753;53.848;10.658;2023-03-01T20:54:28;102815.63;;;4.33
25985;BMP280;66753;53.848;10.658;2023-03-01T20:59:28;102816.31;;;4.40
25985;BMP280;66753;53.848;10.658;2023-03-01T21:04:29;102813.44;;;4.42
25985;BMP280;66753;53.848;10.658;2023-03-01T21:09:30;102808.50;;;4.45
25985;BMP280;66753;53.848;10.658;2023-03-01T21:14:30;102814.09;;;4.49
25985;BMP280;66753;53.848;10.658;2023-03-01T21:19:43;102799.44;;;4.53
25985;BMP280;66753;53.848;10.658;2023-03-01T21:24:43;102802.84;;;4.53
25985;BMP280;66753;53.848;10.658;2023-03-01T21:29:45;102800.22;;;4.53
25985;BMP280;66753;53.848;10.658;2023-03-01T21:34:45;102792.78;;;4.62
25985;BMP280;66753;53.848;10.658;2023-03-01T21:39:46;102788.56;;;4.61
25985;BMP280;66753;53.848;10.658;2023-03-01T21:44:46;102782.50;;;4.60
25985;BMP280;66753;53.848;10.658;2023-03-01T21:49:47;102787.19;;;4.58
25985;BMP280;66753;53.848;10.658;2023-03-01T21:54:50;102778.97;;;4.55
25985;BMP280;66753;53.848;10.658;2023-03-01T21:59:50;102782.88;;;4.52
25985;BMP280;66753;53.848;10.658;2023-03-01T22:04:52;102780.25;;;4.52
25985;BMP280;66753;53.848;10.658;2023-03-01T22:09:56;102774.13;;;4.47
25985;BMP280;66753;53.848;10.658;2023-03-01T22:14:56;102774.13;;;4.47
25985;BMP280;66753;53.848;10.658;2023-03-01T22:19:57;102774.13;;;4.47
25985;BMP280;66753;53.848;10.658;2023-03-01T22:24:57;102777.59;;;4.36
25985;BMP280;66753;53.848;10.658;2023-03-01T22:29:58;102766.03;;;4.32
25985;BMP280;66753;53.848;10.658;2023-03-01T22:34:58;102761.06;;;4.35
25985;BMP280;66753;53.848;10.658;2023-03-01T22:39:59;102758.84;;;4.44
25985;BMP280;66753;53.848;10.658;2023-03-01T22:44:59;102766.19;;;4.42
25985;BMP280;66753;53.848;10.658;2023-03-01T22:50:00;102770.88;;;4.40
25985;BMP280;66753;53.848;10.658;2023-03-01T22:55:00;102763.94;;;4.34
25985;BMP280;66753;53.848;10.658;2023-03-01T23:00:05;102773.34;;;4.30
25985;BMP280;66753;53.848;10.658;2023-03-01T23:05:09;102755.16;;;4.12
25985;BMP280;66753;53.848;10.658;2023-03-01T23:10:10;102756.09;;;4.06
25985;BMP280;66753;53.848;10.658;2023-03-01T23:15:11;102762.63;;;4.03
25985;BMP280;66753;53.848;10.658;2023-03-01T23:20:12;102753.84;;;3.98
25985;BMP280;66753;53.848;10.658;2023-03-01T23:25:13;102748.22;;;3.78
25985;BMP280;66753;53.848;10.658;2023-03-01T23:30:14;102753.00;;;3.81
25985;BMP280;66753;53.848;10.658;2023-03-01T23:35:14;102747.63;;;3.87
25985;BMP280;66753;53.848;10.658;2023-03-01T23:40:15;102763.22;;;3.94
25985;BMP280;66753;53.848;10.658;2023-03-01T23:45:16;102754.78;;;3.92
25985;BMP280;66753;53.848;10.658;2023-03-01T23:50:16;102754.66;;;3.98
25985;BMP280;66753;53.848;10.658;2023-03-01T23:55:18;102760.13;;;3.97
